Time;durP1;ratioP1;P1;durP2;ratioP2;P2;SDS_P1;SDS_P2;PMS_P1;PMS_P2;Temp;Humidity;BMP_temperature;BMP_pressure;BME280_temperature;BME280_humidity;BME280_pressure;Samples;Min_cycle;Max_cycle;Signal;HPM_P1;HPM_P2
2023/07/03 00:00:59;;;;;;;6.67;3.33;;;15.10;99.90;;;;;;5019044;28;20536;-48
2023/07/03 00:03:27;;;;;;;6.50;3.27;;;15.10;99.90;;;;;;5001919;28;20290;-49
2023/07/03 00:05:55;;;;;;;6.63;3.00;;;15.10;99.90;;;;;;5015004;28;20203;-51
2023/07/03 00:08:22;;;;;;;8.43;3.80;;;15.10;99.90;;;;;;5020937;28;20279;-49
2023/07/03 00:10:48;;;;;;;6.27;3.43;;;15.00;99.90;;;;;;5015139;28;20761;-51
2023/07/03 00:13:16;;;;;;;5.27;3.20;;;15.00;99.90;;;;;;5014873;28;20212;-47
2023/07/03 00:15:44;;;;;;;6.53;3.20;;;15.00;99.90;;;;;;5021905;28;20275;-53
2023/07/03 00:18:11;;;;;;;9.10;3.47;;;15.00;99.90;;;;;;4994474;28;20211;-47
2023/07/03 00:20:39;;;;;;;6.80;3.50;;;15.00;99.90;;;;;;5018570;28;20196;-53
2023/07/03 00:23:06;;;;;;;6.40;3.20;;;15.00;99.90;;;;;;5011277;28;20238;-52
2023/07/03 00:25:32;;;;;;;12.57;3.47;;;14.90;99.90;;;;;;5015986;28;20674;-53
2023/07/03 00:27:59;;;;;;;8.03;3.60;;;15.00;99.90;;;;;;5013399;28;20339;-54
2023/07/03 00:30:26;;;;;;;7.13;3.30;;;15.00;99.90;;;;;;5022756;28;20216;-50
2023/07/03 00:32:55;;;;;;;6.27;3.10;;;14.90;99.90;;;;;;4996539;28;20231;-53
2023/07/03 00:35:21;;;;;;;7.13;3.50;;;14.90;99.90;;;;;;5022741;28;20199;-48
2023/07/03 00:37:48;;;;;;;6.73;3.60;;;14.90;99.90;;;;;;5017660;28;21043;-52
2023/07/03 00:40:15;;;;;;;4.83;3.27;;;14.90;99.90;;;;;;5035447;28;20195;-49
2023/07/03 00:42:42;;;;;;;5.17;3.30;;;14.90;99.90;;;;;;5017600;28;20220;-49
2023/07/03 00:45:10;;;;;;;5.17;3.30;;;15.00;99.90;;;;;;5026342;28;20188;-54
2023/07/03 00:47:38;;;;;;;7.57;3.30;;;15.00;99.90;;;;;;5020403;28;20909;-50
2023/07/03 00:50:07;;;;;;;7.97;3.20;;;15.00;99.90;;;;;;5003657;28;20216;-49
2023/07/03 00:52:34;;;;;;;7.80;3.17;;;15.00;99.90;;;;;;5017028;28;20575;-49
2023/07/03 00:55:01;;;;;;;8.27;4.03;;;15.00;99.90;;;;;;5023872;28;20188;-52
2023/07/03 00:57:29;;;;;;;10.37;3.87;;;15.00;99.90;;;;;;5019919;28;20184;-51
2023/07/03 00:59:56;;;;;;;7.30;4.13;;;15.00;99.90;;;;;;5016121;28;20207;-52
2023/07/03 01:02:28;;;;;;;7.67;3.20;;;14.90;99.90;;;;;;5025751;28;20300;-47
2023/07/03 01:04:58;;;;;;;11.30;3.53;;;14.90;99.90;;;;;;5001648;28;20208;-55
2023/07/03 01:07:29;;;;;;;6.00;3.33;;;14.90;99.90;;;;;;5024063;28;20196;-51
2023/07/03 01:10:00;;;;;;;8.37;3.50;;;14.90;99.90;;;;;;5013440;28;20231;-52
2023/07/03 01:12:29;;;;;;;5.50;3.40;;;14.90;99.90;;;;;;5025158;28;20295;-52
2023/07/03 01:15:00;;;;;;;4.80;3.07;;;14.90;99.90;;;;;;5016115;28;20208;-52
2023/07/03 01:17:30;;;;;;;6.40;3.30;;;14.90;99.90;;;;;;5022681;28;20192;-51
2023/07/03 01:20:00;;;;;;;7.53;3.47;;;14.80;99.90;;;;;;5001304;28;20301;-51
2023/07/03 01:22:31;;;;;;;7.60;3.53;;;14.80;99.90;;;;;;5017963;28;20223;-52
2023/07/03 01:25:03;;;;;;;11.70;3.60;;;14.80;99.90;;;;;;5012353;28;20206;-52
2023/07/03 01:27:33;;;;;;;5.47;3.50;;;14.80;99.90;;;;;;5013161;28;20196;-52
2023/07/03 01:30:01;;;;;;;10.60;3.83;;;14.80;99.90;;;;;;5014698;28;20306;-48
2023/07/03 01:32:31;;;;;;;7.07;3.40;;;14.80;99.90;;;;;;5014068;28;20889;-50
2023/07/03 01:34:59;;;;;;;8.30;3.83;;;14.80;99.90;;;;;;4999427;28;20321;-51
2023/07/03 01:37:28;;;;;;;6.70;3.30;;;14.80;99.90;;;;;;5022175;28;20208;-52
2023/07/03 01:39:57;;;;;;;6.67;4.17;;;14.80;99.90;;;;;;5018069;28;20215;-52
2023/07/03 01:42:29;;;;;;;5.83;3.43;;;14.80;99.90;;;;;;5023643;28;20581;-50
2023/07/03 01:44:55;;;;;;;7.27;4.30;;;14.90;99.90;;;;;;5017215;28;20291;-54
2023/07/03 01:47:22;;;;;;;6.13;3.30;;;14.90;99.90;;;;;;5016664;28;20729;-53
2023/07/03 01:49:49;;;;;;;5.20;3.93;;;14.90;99.90;;;;;;5020985;28;20443;-49
2023/07/03 01:52:20;;;;;;;6.13;3.97;;;14.90;99.90;;;;;;5003748;28;20706;-50
2023/07/03 01:54:55;;;;;;;5.83;3.47;;;14.90;99.90;;;;;;5021274;28;20193;-47
2023/07/03 01:57:32;;;;;;;11.37;3.40;;;14.90;99.90;;;;;;5018247;28;20223;-51
2023/07/03 02:00:03;;;;;;;7.23;4.17;;;14.90;99.90;;;;;;5022428;28;20188;-47
2023/07/03 02:02:43;;;;;;;6.87;3.10;;;14.90;99.90;;;;;;5015175;28;20633;-51
2023/07/03 02:05:13;;;;;;;6.60;3.67;;;14.90;99.90;;;;;;5024680;28;20188;-51
2023/07/03 02:07:42;;;;;;;8.73;3.37;;;14.80;99.90;;;;;;4995591;28;20281;-52
2023/07/03 02:10:10;;;;;;;5.87;3.50;;;14.80;99.90;;;;;;5018725;28;20582;-52
2023/07/03 02:12:41;;;;;;;10.30;4.10;;;14.80;99.90;;;;;;5019438;28;20652;-53
2023/07/03 02:15:10;;;;;;;10.13;4.03;;;14.80;99.90;;;;;;5022944;28;20293;-54
2023/07/03 02:17:37;;;;;;;7.97;3.60;;;14.80;99.90;;;;;;5012806;28;20251;-52
2023/07/03 02:20:07;;;;;;;10.13;3.87;;;14.80;99.90;;;;;;5022018;28;20212;-52
2023/07/03 02:22:34;;;;;;;9.90;3.70;;;14.80;99.90;;;;;;4996228;28;20216;-52
2023/07/03 02:25:01;;;;;;;10.10;3.47;;;14.80;99.90;;;;;;5021743;28;20242;-54
2023/07/03 02:27:28;;;;;;;8.27;4.43;;;14.80;99.90;;;;;;5021750;28;20219;-54
2023/07/03 02:29:56;;;;;;;9.07;3.80;;;14.70;99.90;;;;;;5022164;28;20262;-55
2023/07/03 02:32:23;;;;;;;8.00;4.20;;;14.70;99.90;;;;;;5019682;28;20281;-51
2023/07/03 02:34:50;;;;;;;6.00;3.27;;;14.70;99.90;;;;;;5006125;28;20188;-55
2023/07/03 02:37:19;;;;;;;10.83;4.17;;;14.70;99.90;;;;;;4999121;28;20211;-54
2023/07/03 02:39:45;;;;;;;8.70;3.30;;;14.70;99.90;;;;;;5012104;28;20204;-55
2023/07/03 02:42:12;;;;;;;9.23;4.20;;;14.70;99.90;;;;;;5020862;28;20612;-51
2023/07/03 02:44:39;;;;;;;9.37;4.40;;;14.70;99.90;;;;;;5017609;28;20196;-55
2023/07/03 02:47:07;;;;;;;6.57;3.57;;;14.80;99.90;;;;;;5020940;28;20624;-52
2023/07/03 02:49:35;;;;;;;9.33;3.90;;;14.80;99.90;;;;;;5013824;28;20192;-54
2023/07/03 02:52:05;;;;;;;8.90;3.80;;;14.80;99.90;;;;;;5012387;28;20216;-53
2023/07/03 02:54:34;;;;;;;7.60;3.67;;;14.80;99.90;;;;;;5005954;28;20212;-53
2023/07/03 02:57:02;;;;;;;8.10;3.90;;;14.80;99.90;;;;;;5014756;28;20221;-50
2023/07/03 02:59:29;;;;;;;7.37;3.77;;;14.80;99.90;;;;;;5019682;28;20195;-55
2023/07/03 03:01:57;;;;;;;12.90;4.17;;;14.80;99.90;;;;;;5022289;28;20238;-51
2023/07/03 03:04:27;;;;;;;12.57;4.93;;;14.80;99.90;;;;;;5012993;28;20839;-54
2023/07/03 03:06:54;;;;;;;11.50;4.50;;;14.80;99.90;;;;;;5018408;28;20208;-54
2023/07/03 03:09:23;;;;;;;12.87;4.00;;;14.90;99.90;;;;;;4992650;28;20201;-48
2023/07/03 03:11:50;;;;;;;9.13;3.93;;;14.90;99.90;;;;;;5015449;28;20310;-49
2023/07/03 03:14:17;;;;;;;8.47;3.70;;;14.90;99.90;;;;;;5018455;28;20199;-53
2023/07/03 03:16:44;;;;;;;9.73;3.90;;;14.90;99.90;;;;;;5021787;28;20192;-53
2023/07/03 03:19:11;;;;;;;7.50;3.30;;;14.90;99.90;;;;;;5015580;28;20674;-51
2023/07/03 03:21:39;;;;;;;6.30;3.80;;;14.90;99.90;;;;;;5012246;28;20295;-49
2023/07/03 03:24:06;;;;;;;9.17;4.00;;;14.90;99.90;;;;;;4999612;28;20295;-54
2023/07/03 03:26:33;;;;;;;11.13;4.17;;;14.90;99.90;;;;;;5013357;28;20245;-51
2023/07/03 03:29:00;;;;;;;11.37;4.57;;;14.90;99.90;;;;;;5020700;28;20201;-53
2023/07/03 03:31:28;;;;;;;10.63;3.90;;;14.90;99.90;;;;;;5017679;28;20219;-51
2023/07/03 03:34:00;;;;;;;6.30;3.87;;;14.90;99.90;;;;;;5016353;28;20226;-53
2023/07/03 03:36:27;;;;;;;10.03;4.00;;;14.90;99.90;;;;;;5010030;28;20896;-48
2023/07/03 03:38:55;;;;;;;10.27;4.83;;;14.90;99.90;;;;;;5021119;28;20200;-54
2023/07/03 03:41:22;;;;;;;8.87;4.00;;;15.00;99.90;;;;;;4988569;28;20323;-52
2023/07/03 03:43:49;;;;;;;9.03;3.60;;;15.00;99.90;;;;;;5018598;28;20243;-49
2023/07/03 03:46:20;;;;;;;7.83;4.27;;;15.00;99.90;;;;;;5005791;28;20204;-52
2023/07/03 03:48:47;;;;;;;5.97;3.30;;;15.00;99.90;;;;;;5009334;28;20192;-53
2023/07/03 03:51:14;;;;;;;6.90;4.17;;;15.00;99.90;;;;;;5012994;28;20301;-53
2023/07/03 03:53:41;;;;;;;11.77;4.30;;;15.00;99.90;;;;;;5012193;28;20273;-52
2023/07/03 03:56:10;;;;;;;8.00;3.90;;;15.00;99.90;;;;;;4988583;28;20231;-52
2023/07/03 03:58:39;;;;;;;10.13;4.33;;;15.00;99.90;;;;;;5013351;28;20191;-54
2023/07/03 04:01:06;;;;;;;12.27;4.57;;;15.00;99.90;;;;;;5009076;28;20200;-54
2023/07/03 04:03:33;;;;;;;8.37;4.03;;;15.00;99.90;;;;;;5019144;28;20234;-52
2023/07/03 04:06:00;;;;;;;9.67;4.57;;;15.00;99.90;;;;;;5013681;28;20231;-49
2023/07/03 04:08:27;;;;;;;9.47;4.30;;;15.00;99.90;;;;;;5014161;28;20669;-51
2023/07/03 04:10:54;;;;;;;8.43;4.07;;;15.10;99.90;;;;;;5002114;28;20220;-54
2023/07/03 04:13:22;;;;;;;8.23;3.77;;;15.10;99.90;;;;;;5018687;28;20216;-52
2023/07/03 04:15:58;;;;;;;8.17;4.40;;;15.10;99.90;;;;;;5016762;28;20269;-53
2023/07/03 04:18:25;;;;;;;10.40;4.10;;;15.10;99.90;;;;;;5022939;28;20720;-51
2023/07/03 04:20:53;;;;;;;12.40;4.10;;;15.10;99.90;;;;;;5014892;28;20207;-53
2023/07/03 04:23:20;;;;;;;11.97;4.20;;;15.10;99.90;;;;;;5016924;28;20717;-52
2023/07/03 04:25:48;;;;;;;12.23;4.43;;;15.20;99.90;;;;;;5019598;28;20207;-51
2023/07/03 04:28:17;;;;;;;9.73;4.33;;;15.20;99.90;;;;;;4996510;28;20211;-50
2023/07/03 04:30:46;;;;;;;8.23;3.80;;;15.20;99.90;;;;;;5023961;28;20199;-49
2023/07/03 04:33:12;;;;;;;10.30;4.07;;;15.20;99.90;;;;;;5019665;28;20303;-53
2023/07/03 04:35:39;;;;;;;10.40;3.97;;;15.20;99.90;;;;;;5020890;28;20223;-55
2023/07/03 04:38:06;;;;;;;11.60;4.57;;;15.30;99.90;;;;;;5014124;28;20200;-49
2023/07/03 04:40:34;;;;;;;10.67;4.20;;;15.30;99.90;;;;;;5016608;28;20974;-48
2023/07/03 04:43:01;;;;;;;11.13;4.93;;;15.30;99.90;;;;;;4997275;28;20270;-51
2023/07/03 04:45:31;;;;;;;9.67;4.43;;;15.30;99.90;;;;;;5015597;28;20290;-54
2023/07/03 04:47:59;;;;;;;10.37;4.77;;;15.40;99.90;;;;;;5024985;28;20220;-50
2023/07/03 04:50:26;;;;;;;10.73;4.33;;;15.40;99.90;;;;;;5020098;28;20246;-52
2023/07/03 04:52:53;;;;;;;11.40;4.80;;;15.40;99.90;;;;;;5019599;28;20228;-48
2023/07/03 04:55:21;;;;;;;12.43;4.23;;;15.40;99.90;;;;;;5007940;28;20286;-53
2023/07/03 04:57:48;;;;;;;12.57;4.67;;;15.40;99.90;;;;;;4998227;28;20203;-51
2023/07/03 05:00:18;;;;;;;13.07;4.53;;;15.40;99.90;;;;;;5017670;28;20207;-55
2023/07/03 05:02:46;;;;;;;11.17;4.40;;;15.40;99.90;;;;;;5021105;28;20266;-55
2023/07/03 05:05:16;;;;;;;10.20;4.37;;;15.40;99.90;;;;;;5019911;28;20699;-48
2023/07/03 05:07:44;;;;;;;8.40;4.03;;;15.50;99.90;;;;;;5014197;28;20204;-49
2023/07/03 05:10:13;;;;;;;14.07;5.17;;;15.50;99.90;;;;;;5016582;28;20230;-54
2023/07/03 05:12:40;;;;;;;10.67;4.50;;;15.60;99.90;;;;;;4997816;28;20298;-49
2023/07/03 05:15:09;;;;;;;15.80;4.73;;;15.60;99.90;;;;;;5018235;28;20684;-52
2023/07/03 05:17:38;;;;;;;12.20;5.07;;;15.60;99.90;;;;;;5017330;28;20857;-55
2023/07/03 05:20:08;;;;;;;9.43;4.43;;;15.60;99.90;;;;;;5018402;28;20192;-54
2023/07/03 05:22:37;;;;;;;13.07;4.70;;;15.70;99.90;;;;;;5014216;28;21842;-54
2023/07/03 05:25:05;;;;;;;11.20;5.43;;;15.70;99.90;;;;;;5017258;28;20568;-48
2023/07/03 05:27:33;;;;;;;13.33;4.93;;;15.80;99.90;;;;;;4996697;28;20301;-52
2023/07/03 05:30:00;;;;;;;11.10;4.67;;;15.80;99.90;;;;;;5019966;28;20204;-55
2023/07/03 05:32:27;;;;;;;11.97;4.83;;;15.80;99.90;;;;;;5006925;28;20243;-54
2023/07/03 05:34:54;;;;;;;10.20;4.47;;;15.90;99.90;;;;;;5025497;28;20193;-47
2023/07/03 05:37:21;;;;;;;8.07;4.67;;;15.90;99.90;;;;;;5011226;28;20208;-57
2023/07/03 05:39:49;;;;;;;14.10;5.57;;;15.90;99.90;;;;;;5022587;28;20700;-46
2023/07/03 05:42:16;;;;;;;13.23;4.43;;;16.00;99.90;;;;;;5001977;28;20217;-55
2023/07/03 05:44:43;;;;;;;9.60;3.77;;;16.10;99.90;;;;;;5009557;28;20195;-49
2023/07/03 05:47:11;;;;;;;8.77;4.30;;;16.10;99.90;;;;;;5016376;28;20716;-53
2023/07/03 05:49:37;;;;;;;9.33;3.70;;;16.20;99.90;;;;;;5021327;28;20337;-48
2023/07/03 05:52:05;;;;;;;13.70;4.67;;;16.20;99.90;;;;;;5024038;28;20243;-50
2023/07/03 05:54:32;;;;;;;10.30;3.93;;;16.30;99.90;;;;;;5014899;28;20444;-55
2023/07/03 05:57:04;;;;;;;7.60;3.83;;;16.40;99.90;;;;;;5006682;28;20250;-55
2023/07/03 05:59:31;;;;;;;6.97;3.47;;;16.40;99.90;;;;;;5000776;28;20207;-49
2023/07/03 06:01:58;;;;;;;12.90;4.40;;;16.30;99.90;;;;;;5016530;28;20223;-55
2023/07/03 06:04:25;;;;;;;9.83;4.03;;;16.20;99.90;;;;;;5014612;28;20215;-51
2023/07/03 06:06:53;;;;;;;13.50;3.63;;;16.20;99.90;;;;;;5016377;28;20220;-55
2023/07/03 06:09:20;;;;;;;10.60;3.90;;;16.30;99.90;;;;;;5009239;28;20211;-51
2023/07/03 06:11:46;;;;;;;10.00;3.93;;;16.30;99.90;;;;;;5022452;28;20204;-50
2023/07/03 06:14:17;;;;;;;9.13;3.40;;;16.40;99.90;;;;;;4994424;28;20235;-49
2023/07/03 06:16:44;;;;;;;9.33;3.60;;;16.50;99.90;;;;;;5023174;28;20666;-50
2023/07/03 06:19:12;;;;;;;8.63;3.10;;;16.60;99.90;;;;;;5009522;28;20204;-54
2023/07/03 06:21:40;;;;;;;10.60;3.40;;;16.70;99.90;;;;;;5020919;28;20285;-50
2023/07/03 06:24:10;;;;;;;12.10;3.20;;;16.70;99.90;;;;;;5015058;28;20207;-52
2023/07/03 06:26:39;;;;;;;9.77;3.80;;;16.80;99.90;;;;;;5020060;28;20231;-50
2023/07/03 06:29:07;;;;;;;10.83;3.63;;;16.80;99.90;;;;;;5012924;28;20274;-57
2023/07/03 06:31:35;;;;;;;12.07;3.33;;;16.80;99.90;;;;;;4996869;28;20282;-49
2023/07/03 06:34:03;;;;;;;7.20;2.97;;;16.90;99.90;;;;;;5012251;28;20219;-56
2023/07/03 06:36:31;;;;;;;8.40;3.27;;;16.90;99.90;;;;;;5020033;28;20204;-53
2023/07/03 06:39:01;;;;;;;7.13;2.60;;;16.90;99.90;;;;;;5022120;28;20203;-55
2023/07/03 06:41:30;;;;;;;12.03;3.43;;;16.90;99.90;;;;;;5017886;28;20282;-47
2023/07/03 06:43:57;;;;;;;13.87;3.33;;;16.90;99.90;;;;;;5009218;28;20618;-56
2023/07/03 06:46:24;;;;;;;8.87;3.07;;;16.90;99.90;;;;;;5001352;28;20235;-51
2023/07/03 06:48:55;;;;;;;7.13;3.30;;;17.00;99.90;;;;;;5015495;28;20211;-56
2023/07/03 06:51:22;;;;;;;10.43;2.83;;;17.00;99.90;;;;;;5022008;28;20188;-47
2023/07/03 06:53:49;;;;;;;7.87;3.00;;;17.00;99.90;;;;;;5023637;28;20246;-55
2023/07/03 06:56:16;;;;;;;6.97;3.53;;;17.10;99.90;;;;;;5002745;28;20208;-48
2023/07/03 06:58:43;;;;;;;7.23;2.77;;;17.20;99.90;;;;;;5016616;28;20277;-46
2023/07/03 07:01:11;;;;;;;14.23;3.10;;;17.20;99.90;;;;;;5013270;28;20908;-45
2023/07/03 07:03:38;;;;;;;7.37;3.00;;;17.20;99.90;;;;;;5002315;28;20239;-45
2023/07/03 07:06:10;;;;;;;8.23;2.67;;;17.10;99.90;;;;;;5010996;28;20273;-56
2023/07/03 07:08:37;;;;;;;11.07;2.50;;;17.10;99.90;;;;;;5015218;28;20211;-49
2023/07/03 07:11:07;;;;;;;9.27;2.30;;;17.00;99.90;;;;;;5012315;28;20271;-56
2023/07/03 07:13:34;;;;;;;9.13;2.50;;;17.00;99.90;;;;;;5012786;28;20228;-48
2023/07/03 07:16:01;;;;;;;11.13;3.17;;;17.00;99.90;;;;;;5001015;28;20583;-58
2023/07/03 07:18:28;;;;;;;12.37;2.60;;;17.20;99.90;;;;;;4997130;28;20900;-52
2023/07/03 07:20:55;;;;;;;7.93;2.20;;;17.30;99.90;;;;;;5009307;28;20227;-56
2023/07/03 07:23:23;;;;;;;7.83;2.80;;;17.50;99.90;;;;;;5018581;28;20323;-51
2023/07/03 07:25:54;;;;;;;6.20;2.07;;;17.50;99.90;;;;;;5008522;28;20207;-50
2023/07/03 07:28:20;;;;;;;9.23;2.13;;;17.50;99.90;;;;;;5014612;28;20207;-51
2023/07/03 07:30:48;;;;;;;6.13;2.23;;;17.40;99.90;;;;;;4998137;28;20283;-54
2023/07/03 07:33:15;;;;;;;7.33;2.13;;;17.40;99.90;;;;;;4987719;28;20590;-54
2023/07/03 07:35:42;;;;;;;8.93;3.10;;;17.30;99.90;;;;;;5013798;28;20218;-53
2023/07/03 07:38:09;;;;;;;4.70;1.83;;;17.30;99.90;;;;;;5016268;28;20200;-54
2023/07/03 07:40:37;;;;;;;5.70;2.20;;;17.30;99.90;;;;;;5018819;28;20204;-47
2023/07/03 07:43:04;;;;;;;6.83;2.00;;;17.30;99.90;;;;;;5015583;28;20239;-52
2023/07/03 07:45:31;;;;;;;10.23;2.40;;;17.20;99.90;;;;;;5004106;28;20196;-47
2023/07/03 07:47:58;;;;;;;6.73;2.30;;;17.20;99.90;;;;;;4990996;28;20212;-52
2023/07/03 07:50:27;;;;;;;6.30;2.20;;;17.20;99.90;;;;;;5012538;28;20250;-53
2023/07/03 07:52:55;;;;;;;9.43;2.33;;;17.10;99.90;;;;;;5020540;28;20793;-52
2023/07/03 07:55:22;;;;;;;7.77;2.37;;;17.10;99.90;;;;;;5010936;28;20191;-50
2023/07/03 07:57:50;;;;;;;6.10;1.83;;;17.20;99.90;;;;;;5019227;28;20257;-49
2023/07/03 08:00:19;;;;;;;6.47;2.23;;;17.20;99.90;;;;;;5015854;28;20607;-50
2023/07/03 08:02:46;;;;;;;7.07;1.90;;;17.40;99.90;;;;;;4992777;28;20983;-47
2023/07/03 08:05:13;;;;;;;7.20;2.20;;;17.60;99.90;;;;;;5015420;28;20593;-52
2023/07/03 08:07:40;;;;;;;7.23;1.83;;;17.70;99.90;;;;;;5009703;28;20188;-47
2023/07/03 08:10:07;;;;;;;10.07;2.40;;;17.90;99.90;;;;;;5019202;28;20231;-47
2023/07/03 08:12:34;;;;;;;5.93;2.10;;;18.00;99.90;;;;;;5016456;28;20223;-50
2023/07/03 08:15:03;;;;;;;3.47;1.73;;;18.10;99.90;;;;;;5020401;28;20200;-50
2023/07/03 08:17:30;;;;;;;9.63;2.93;;;18.10;99.90;;;;;;5005243;28;20203;-52
2023/07/03 08:19:57;;;;;;;4.50;1.80;;;18.10;99.90;;;;;;4995016;28;20212;-54
2023/07/03 08:22:24;;;;;;;8.47;2.03;;;18.00;99.90;;;;;;5011855;28;20569;-50
2023/07/03 08:24:51;;;;;;;6.83;2.10;;;18.00;99.90;;;;;;5021073;28;20844;-46
2023/07/03 08:27:18;;;;;;;4.60;2.20;;;17.90;99.90;;;;;;5018341;28;20239;-55
2023/07/03 08:29:47;;;;;;;5.23;2.13;;;18.00;99.90;;;;;;5017990;28;20184;-53
2023/07/03 08:32:15;;;;;;;5.70;2.20;;;18.00;99.90;;;;;;5009428;28;20307;-57
2023/07/03 08:34:42;;;;;;;3.10;1.47;;;18.20;99.90;;;;;;4986019;28;20310;-50
2023/07/03 08:37:09;;;;;;;5.10;1.77;;;18.20;99.90;;;;;;5014639;28;20208;-52
2023/07/03 08:39:38;;;;;;;5.77;1.47;;;18.30;99.90;;;;;;5018356;28;20195;-46
2023/07/03 08:42:13;;;;;;;5.10;1.80;;;18.40;99.90;;;;;;5018365;28;20219;-54
2023/07/03 08:44:40;;;;;;;4.57;1.67;;;18.50;99.90;;;;;;5014203;28;20184;-50
2023/07/03 08:47:13;;;;;;;5.80;1.70;;;18.50;99.90;;;;;;5016485;28;20650;-51
2023/07/03 08:49:44;;;;;;;8.23;2.00;;;18.50;99.90;;;;;;5014608;28;20196;-48
2023/07/03 08:52:13;;;;;;;7.27;1.53;;;18.50;99.90;;;;;;4999551;28;20223;-50
2023/07/03 08:54:42;;;;;;;4.80;1.80;;;18.50;99.90;;;;;;5016077;28;20246;-53
2023/07/03 08:57:11;;;;;;;5.47;1.57;;;18.50;99.90;;;;;;5020230;28;20273;-53
2023/07/03 08:59:38;;;;;;;6.03;1.60;;;18.40;99.90;;;;;;5020345;28;20200;-52
2023/07/03 09:02:14;;;;;;;4.60;1.80;;;18.60;99.90;;;;;;5020583;28;20251;-52
2023/07/03 09:04:57;;;;;;;7.67;1.80;;;18.80;99.90;;;;;;5018697;28;20199;-53
2023/07/03 09:07:29;;;;;;;5.73;1.80;;;19.00;99.90;;;;;;4991368;28;20553;-53
2023/07/03 09:10:04;;;;;;;7.70;2.13;;;19.00;99.90;;;;;;5024725;28;20216;-48
2023/07/03 09:12:37;;;;;;;6.50;2.30;;;19.00;99.90;;;;;;5016023;28;20219;-51
2023/07/03 09:15:12;;;;;;;7.93;2.17;;;19.00;99.90;;;;;;5022914;28;20722;-50
2023/07/03 09:17:40;;;;;;;4.90;1.80;;;19.00;99.90;;;;;;5013779;28;20255;-50
2023/07/03 09:20:11;;;;;;;4.80;1.33;;;19.00;99.90;;;;;;5014331;28;20266;-48
2023/07/03 09:22:44;;;;;;;5.03;1.77;;;19.00;99.90;;;;;;5000762;28;20289;-52
2023/07/03 09:25:20;;;;;;;7.90;1.87;;;19.20;99.60;;;;;;5021147;28;20231;-52
2023/07/03 09:27:50;;;;;;;6.60;1.50;;;19.40;97.40;;;;;;5020345;28;20204;-48
2023/07/03 09:30:17;;;;;;;6.27;1.50;;;19.40;98.20;;;;;;5017736;28;20270;-49
2023/07/03 09:32:44;;;;;;;3.53;1.40;;;19.40;98.20;;;;;;5014872;28;20305;-50
2023/07/03 09:35:15;;;;;;;5.33;1.47;;;19.30;98.20;;;;;;5015802;28;20659;-53
2023/07/03 09:37:45;;;;;;;5.57;1.23;;;19.00;99.70;;;;;;4999746;28;20214;-53
2023/07/03 09:40:16;;;;;;;5.00;1.30;;;18.80;99.90;;;;;;5022299;28;20659;-51
2023/07/03 09:42:43;;;;;;;4.60;1.20;;;18.50;99.90;;;;;;5014105;28;20216;-54
2023/07/03 09:45:15;;;;;;;5.33;0.93;;;18.30;99.90;;;;;;5022463;28;20297;-52
2023/07/03 09:47:47;;;;;;;3.73;1.10;;;18.30;99.90;;;;;;5012294;28;20282;-53
2023/07/03 09:50:21;;;;;;;1.40;0.60;;;18.30;99.90;;;;;;5014987;28;20246;-50
2023/07/03 09:52:48;;;;;;;1.90;0.80;;;18.30;99.60;;;;;;5002261;28;20286;-50
2023/07/03 09:55:17;;;;;;;3.60;1.10;;;18.30;99.60;;;;;;5014706;28;21418;-52
2023/07/03 09:57:44;;;;;;;4.97;1.10;;;18.30;99.90;;;;;;5015796;28;20209;-50
2023/07/03 10:00:16;;;;;;;3.57;1.17;;;18.30;99.90;;;;;;5020505;28;20257;-48
2023/07/03 10:02:43;;;;;;;3.17;0.90;;;18.30;99.90;;;;;;5017763;28;20430;-53
2023/07/03 10:05:16;;;;;;;5.70;1.10;;;18.40;99.90;;;;;;5006117;28;21084;-51
2023/07/03 10:07:45;;;;;;;2.73;1.00;;;18.50;99.90;;;;;;5016034;28;20199;-54
2023/07/03 10:10:15;;;;;;;4.87;1.13;;;18.50;99.90;;;;;;5003459;28;20216;-53
2023/07/03 10:12:46;;;;;;;3.73;1.23;;;18.40;99.90;;;;;;5012630;28;20231;-52
2023/07/03 10:15:19;;;;;;;1.53;0.97;;;18.40;99.90;;;;;;5024396;28;20536;-52
2023/07/03 10:17:51;;;;;;;3.60;1.10;;;18.40;99.90;;;;;;5016206;28;20199;-50
2023/07/03 10:20:24;;;;;;;2.73;1.17;;;18.20;99.90;;;;;;5015802;28;20710;-49
2023/07/03 10:22:53;;;;;;;3.03;1.33;;;18.00;99.90;;;;;;5012927;28;20203;-48
2023/07/03 10:25:25;;;;;;;6.90;1.13;;;17.70;99.90;;;;;;4995811;28;20236;-52
2023/07/03 10:27:56;;;;;;;5.17;1.30;;;17.40;99.90;;;;;;5015551;28;20188;-49
2023/07/03 10:30:24;;;;;;;2.70;1.30;;;17.00;99.90;;;;;;5014600;28;20200;-51
2023/07/03 10:32:54;;;;;;;4.07;1.93;;;16.60;99.90;;;;;;5017733;28;20219;-47
2023/07/03 10:35:27;;;;;;;6.30;1.30;;;16.40;99.90;;;;;;5013334;28;20292;-47
2023/07/03 10:38:01;;;;;;;2.80;1.13;;;16.10;99.90;;;;;;5012092;28;20274;-52
2023/07/03 10:40:35;;;;;;;5.97;1.20;;;15.90;99.90;;;;;;5001871;28;20204;-49
2023/07/03 10:43:05;;;;;;;2.70;1.20;;;15.70;99.90;;;;;;5006689;28;20212;-51
2023/07/03 10:45:36;;;;;;;1.57;1.07;;;15.40;99.90;;;;;;5018432;28;21217;-49
2023/07/03 10:48:08;;;;;;;3.10;1.10;;;15.30;99.90;;;;;;5013012;28;20218;-46
2023/07/03 10:50:41;;;;;;;0.90;0.57;;;15.20;99.90;;;;;;5010171;28;20191;-47
2023/07/03 10:53:19;;;;;;;3.83;1.00;;;15.10;99.90;;;;;;5014809;28;20647;-48
2023/07/03 10:55:52;;;;;;;1.80;1.20;;;15.10;99.90;;;;;;4985230;28;20323;-49
2023/07/03 10:58:27;;;;;;;2.20;1.10;;;15.20;99.90;;;;;;5012406;28;20285;-50
2023/07/03 11:01:00;;;;;;;2.13;0.80;;;15.30;99.90;;;;;;5003931;28;20950;-46
2023/07/03 11:03:36;;;;;;;2.63;1.30;;;15.40;99.90;;;;;;5008367;28;20235;-50
2023/07/03 11:06:06;;;;;;;1.17;0.80;;;15.40;99.90;;;;;;5015227;28;20203;-47
2023/07/03 11:08:40;;;;;;;4.47;1.53;;;15.50;99.90;;;;;;5009286;28;20212;-48
2023/07/03 11:11:18;;;;;;;1.80;0.80;;;15.50;99.90;;;;;;4998930;28;20986;-47
2023/07/03 11:13:52;;;;;;;1.77;1.20;;;15.60;99.90;;;;;;5009596;28;20238;-47
2023/07/03 11:16:20;;;;;;;3.77;0.90;;;15.60;99.90;;;;;;5010820;28;20215;-52
2023/07/03 11:18:58;;;;;;;1.90;0.90;;;15.70;99.90;;;;;;5007103;28;20565;-46
2023/07/03 11:21:37;;;;;;;2.50;0.73;;;15.80;99.90;;;;;;5012543;28;20277;-51
2023/07/03 11:24:15;;;;;;;4.10;1.67;;;16.00;99.90;;;;;;5013874;28;20329;-50
2023/07/03 11:26:50;;;;;;;2.80;1.30;;;16.20;99.90;;;;;;4995631;28;20388;-46
2023/07/03 11:29:18;;;;;;;2.30;1.57;;;16.30;99.90;;;;;;5016119;28;20717;-50
2023/07/03 11:31:47;;;;;;;1.37;0.77;;;16.50;99.90;;;;;;5008642;28;20211;-48
2023/07/03 11:34:16;;;;;;;2.47;0.90;;;16.60;99.90;;;;;;5014276;28;20921;-47
2023/07/03 11:36:46;;;;;;;9.50;1.27;;;16.90;99.90;;;;;;5010836;28;20949;-49
2023/07/03 11:39:19;;;;;;;2.97;1.67;;;17.00;99.90;;;;;;5012332;28;20210;-48
2023/07/03 11:41:50;;;;;;;3.23;1.10;;;17.30;99.90;;;;;;4990522;28;20216;-52
2023/07/03 11:44:20;;;;;;;3.97;1.13;;;17.40;99.90;;;;;;5007919;28;20218;-50
2023/07/03 11:46:54;;;;;;;2.90;1.10;;;17.50;99.90;;;;;;5020374;28;20200;-49
2023/07/03 11:49:26;;;;;;;3.47;1.27;;;17.50;99.90;;;;;;5000490;28;20199;-52
2023/07/03 11:52:00;;;;;;;2.33;1.00;;;17.50;99.90;;;;;;5007868;28;20196;-51
2023/07/03 11:54:28;;;;;;;1.33;0.93;;;17.60;99.90;;;;;;5007643;28;20227;-49
2023/07/03 11:56:58;;;;;;;2.17;1.00;;;17.60;99.90;;;;;;5003078;28;20670;-49
2023/07/03 11:59:36;;;;;;;2.83;1.20;;;17.70;99.90;;;;;;5020473;28;20219;-53
2023/07/03 12:02:45;;;;;;;3.63;1.10;;;17.70;99.90;;;;;;5015894;28;20318;-49
2023/07/03 12:05:35;;;;;;;1.30;0.90;;;17.50;99.90;;;;;;5002479;28;20745;-51
2023/07/03 12:08:03;;;;;;;2.23;1.10;;;17.40;99.90;;;;;;5015227;28;20196;-52
2023/07/03 12:10:57;;;;;;;1.37;0.90;;;17.30;99.90;;;;;;5015782;28;20724;-51
2023/07/03 12:13:36;;;;;;;1.13;0.50;;;17.00;99.90;;;;;;4999613;28;20227;-54
2023/07/03 12:16:06;;;;;;;1.60;0.50;;;16.70;99.90;;;;;;5018004;28;20200;-52
2023/07/03 12:18:34;;;;;;;2.27;0.50;;;16.50;99.90;;;;;;5017644;28;20307;-48
2023/07/03 12:21:04;;;;;;;1.80;0.53;;;16.40;99.90;;;;;;5019133;28;20192;-51
2023/07/03 12:23:34;;;;;;;1.87;0.93;;;16.30;99.90;;;;;;5022911;28;20220;-53
2023/07/03 12:26:02;;;;;;;1.73;0.73;;;16.40;99.90;;;;;;5011782;28;20228;-51
2023/07/03 12:28:29;;;;;;;1.90;0.90;;;16.50;99.90;;;;;;5001736;28;20269;-55
2023/07/03 12:31:13;;;;;;;2.33;0.67;;;16.70;99.90;;;;;;5019905;28;20204;-54
2023/07/03 12:33:57;;;;;;;1.43;0.60;;;16.90;99.90;;;;;;5025320;28;20220;-47
2023/07/03 12:36:27;;;;;;;1.70;0.60;;;16.90;99.90;;;;;;5013152;28;20323;-51
2023/07/03 12:38:56;;;;;;;2.97;0.80;;;17.10;99.90;;;;;;5024434;28;20995;-53
2023/07/03 12:41:26;;;;;;;1.77;0.67;;;17.40;99.90;;;;;;5012764;28;20924;-52
2023/07/03 12:43:53;;;;;;;0.93;0.60;;;17.60;99.90;;;;;;5000927;28;23987;-54
2023/07/03 12:46:32;;;;;;;4.60;1.27;;;17.70;99.90;;;;;;5014027;28;20863;-47
2023/07/03 12:49:08;;;;;;;1.07;0.60;;;17.90;99.90;;;;;;5024354;28;20200;-50
2023/07/03 12:51:41;;;;;;;1.73;0.70;;;17.90;99.90;;;;;;5025048;28;20273;-49
2023/07/03 12:54:11;;;;;;;2.70;0.60;;;17.90;99.90;;;;;;5018379;28;20580;-52
2023/07/03 12:56:39;;;;;;;0.93;0.63;;;17.80;99.90;;;;;;5018560;28;20670;-53